Time;durP1;ratioP1;P1;durP2;ratioP2;P2;SDS_P1;SDS_P2;PMS_P1;PMS_P2;Temp;Humidity;BMP_temperature;BMP_pressure;BME280_temperature;BME280_humidity;BME280_pressure;Samples;Min_cycle;Max_cycle;Signal;HPM_P1;HPM_P2
2021/09/07 00:02:25;;;;;;;11.03;7.27;;;15.60;99.90;;;16.89;100.00;98880.38;5061728;28;20469;-81
2021/09/07 00:04:53;;;;;;;11.13;7.40;;;15.70;99.90;;;16.82;100.00;98876.09;5060622;28;20548;-81
2021/09/07 00:07:22;;;;;;;12.00;7.87;;;15.60;99.90;;;16.76;100.00;98871.66;5062131;28;20962;-81
2021/09/07 00:09:52;;;;;;;15.63;8.30;;;15.50;99.90;;;16.64;100.00;98873.28;5063369;28;20524;-81
2021/09/07 00:12:21;;;;;;;10.80;7.53;;;15.30;99.90;;;16.60;100.00;98876.34;5059758;28;20465;-81
2021/09/07 00:14:50;;;;;;;13.83;7.50;;;15.40;99.90;;;16.59;100.00;98876.56;5064569;28;20925;-81
2021/09/07 00:17:19;;;;;;;10.87;8.00;;;15.30;99.90;;;16.56;100.00;98882.22;5058001;28;20461;-81
2021/09/07 00:19:48;;;;;;;11.30;8.10;;;15.30;99.90;;;16.56;100.00;98880.41;5060341;28;20468;-81
2021/09/07 00:22:17;;;;;;;10.40;8.00;;;15.30;99.90;;;16.59;100.00;98877.34;5057576;28;20465;-81
2021/09/07 00:24:46;;;;;;;11.83;7.80;;;15.30;99.90;;;16.63;100.00;98879.56;5053442;28;20469;-81
2021/09/07 00:27:14;;;;;;;14.03;8.10;;;15.40;99.90;;;16.58;100.00;98875.75;5054763;28;20495;-81
2021/09/07 00:29:43;;;;;;;14.03;8.00;;;15.40;99.90;;;16.50;100.00;98883.00;5066065;28;20589;-81
2021/09/07 00:32:11;;;;;;;13.83;7.80;;;15.20;99.90;;;16.41;100.00;98886.88;5059553;28;20517;-81
2021/09/07 00:34:41;;;;;;;9.60;7.33;;;15.10;99.90;;;16.45;100.00;98878.34;5060486;28;21067;-81
2021/09/07 00:37:10;;;;;;;18.07;8.43;;;15.20;99.90;;;16.51;100.00;98874.91;5053311;28;20461;-81
2021/09/07 00:39:38;;;;;;;10.70;7.80;;;15.30;99.90;;;16.51;100.00;98876.72;5063437;28;20858;-81
2021/09/07 00:42:07;;;;;;;14.70;7.63;;;15.30;99.90;;;16.40;100.00;98872.88;5064299;28;20468;-81
2021/09/07 00:44:36;;;;;;;17.20;8.10;;;15.20;99.90;;;16.37;100.00;98872.47;5062117;28;20498;-81
2021/09/07 00:47:05;;;;;;;10.60;6.87;;;15.10;99.90;;;16.25;100.00;98872.25;5059484;28;20468;-81
2021/09/07 00:49:35;;;;;;;12.23;7.87;;;15.00;99.90;;;16.21;100.00;98871.03;5062700;28;21054;-81
2021/09/07 00:52:08;;;;;;;9.97;7.43;;;14.90;99.90;;;16.18;100.00;98863.50;5062218;28;20479;-81
2021/09/07 00:54:39;;;;;;;10.20;7.23;;;14.90;99.90;;;16.16;100.00;98865.56;5057031;28;20906;-81
2021/09/07 00:57:11;;;;;;;14.93;7.43;;;14.90;99.90;;;16.22;100.00;98859.47;5064224;28;20512;-81
2021/09/07 00:59:39;;;;;;;14.90;8.40;;;15.00;99.90;;;16.24;100.00;98857.44;5060224;28;20510;-81
2021/09/07 01:02:09;;;;;;;14.33;8.40;;;15.00;99.90;;;16.22;100.00;98856.00;5061127;28;20499;-81
2021/09/07 01:04:38;;;;;;;14.43;7.90;;;15.00;99.90;;;16.21;100.00;98859.69;5065157;28;20538;-81
2021/09/07 01:07:08;;;;;;;9.77;6.83;;;15.00;99.90;;;16.26;100.00;98852.75;5060919;28;20870;-81
2021/09/07 01:09:39;;;;;;;8.10;6.90;;;15.10;99.90;;;16.25;100.00;98850.31;5067329;28;21020;-81
2021/09/07 01:12:08;;;;;;;10.57;7.53;;;15.10;99.90;;;16.10;100.00;98851.31;5071227;28;20534;-81
2021/09/07 01:14:39;;;;;;;11.50;8.40;;;14.90;99.90;;;15.98;100.00;98852.13;5067788;28;20545;-81
2021/09/07 01:17:13;;;;;;;11.10;7.70;;;14.80;99.90;;;15.98;100.00;98854.78;5063390;28;20515;-81
2021/09/07 01:19:43;;;;;;;14.13;7.53;;;14.70;99.90;;;15.94;100.00;98851.72;5067859;28;20475;-81
2021/09/07 01:22:13;;;;;;;10.57;7.73;;;14.70;99.90;;;15.88;100.00;98857.81;5062705;28;20456;-81
2021/09/07 01:24:43;;;;;;;14.23;8.20;;;14.60;99.90;;;15.89;100.00;98851.53;5061779;28;20460;-81
2021/09/07 01:27:12;;;;;;;13.27;7.53;;;14.60;99.90;;;15.93;100.00;98849.31;5063370;28;20452;-81
2021/09/07 01:29:45;;;;;;;12.67;7.23;;;14.80;99.90;;;15.76;100.00;98843.56;5059536;28;20496;-81
2021/09/07 01:32:15;;;;;;;10.27;7.67;;;14.60;99.90;;;15.79;100.00;98852.94;5057250;28;20487;-81
2021/09/07 01:34:43;;;;;;;11.03;7.50;;;14.50;99.90;;;15.83;100.00;98848.84;5061072;28;20499;-81
2021/09/07 01:37:12;;;;;;;21.97;7.63;;;14.60;99.90;;;15.75;100.00;98854.34;5059142;28;20471;-81
2021/09/07 01:39:41;;;;;;;11.50;8.10;;;14.50;99.90;;;15.64;100.00;98852.28;5060981;28;20469;-81
2021/09/07 01:42:11;;;;;;;11.70;7.83;;;14.40;99.90;;;15.65;100.00;98846.81;5064374;28;21006;-81
2021/09/07 01:44:42;;;;;;;10.90;7.27;;;14.40;99.90;;;15.68;100.00;98840.34;5063466;28;20449;-81
2021/09/07 01:47:11;;;;;;;11.20;7.93;;;14.50;99.90;;;15.69;100.00;98844.59;5060926;28;20468;-81
2021/09/07 01:49:40;;;;;;;18.30;8.80;;;14.50;99.90;;;15.66;100.00;98847.59;5056997;28;21060;-81
2021/09/07 01:52:11;;;;;;;10.53;7.20;;;14.50;99.90;;;15.51;100.00;98853.88;5058210;28;20473;-81
2021/09/07 01:54:42;;;;;;;12.77;7.80;;;14.30;99.90;;;15.53;100.00;98849.22;5056490;28;20493;-81
2021/09/07 01:57:13;;;;;;;12.50;8.40;;;14.30;99.90;;;15.60;100.00;98855.31;5067030;28;20472;-81
2021/09/07 01:59:42;;;;;;;12.80;8.00;;;14.50;99.90;;;15.46;100.00;98858.09;5063020;28;20514;-81
2021/09/07 02:02:11;;;;;;;20.47;9.10;;;14.30;99.90;;;15.50;100.00;98854.06;5060482;28;21018;-81
2021/09/07 02:04:39;;;;;;;16.67;8.23;;;14.30;99.90;;;15.47;100.00;98855.25;5067201;28;20518;-81
2021/09/07 02:07:08;;;;;;;13.47;7.03;;;14.30;99.90;;;15.49;100.00;98850.63;5060382;28;20597;-81
2021/09/07 02:09:37;;;;;;;14.00;8.40;;;14.30;99.90;;;15.53;100.00;98851.84;5062170;28;20989;-81
2021/09/07 02:12:07;;;;;;;20.70;8.40;;;14.40;99.90;;;15.42;100.00;98849.75;5062474;28;20518;-81
2021/09/07 02:14:37;;;;;;;13.70;8.53;;;14.20;99.90;;;15.31;100.00;98845.03;5055089;28;20518;-81
2021/09/07 02:17:05;;;;;;;12.30;8.00;;;14.10;99.90;;;15.30;100.00;98850.53;5058408;28;20461;-82
2021/09/07 02:19:34;;;;;;;12.63;7.47;;;14.00;99.90;;;15.32;100.00;98854.59;5059210;28;21040;-81
2021/09/07 02:22:02;;;;;;;12.67;8.67;;;14.10;99.90;;;15.37;100.00;98851.38;5058924;28;20465;-81
2021/09/07 02:24:31;;;;;;;12.33;9.00;;;14.20;99.90;;;15.33;100.00;98847.50;5056947;28;20517;-81
2021/09/07 02:26:59;;;;;;;13.43;8.50;;;14.10;99.90;;;15.35;100.00;98842.81;5058571;28;20465;-81
2021/09/07 02:29:28;;;;;;;12.17;9.07;;;14.20;99.90;;;15.37;100.00;98854.81;5070878;28;20541;-81
2021/09/07 02:31:58;;;;;;;16.80;9.13;;;14.20;99.90;;;15.24;100.00;98860.03;5065188;28;20491;-81
2021/09/07 02:34:26;;;;;;;12.87;9.03;;;14.10;99.90;;;15.08;100.00;98860.38;5072247;28;20465;-81
2021/09/07 02:36:55;;;;;;;13.70;8.47;;;13.90;99.90;;;15.17;100.00;98859.19;5067194;28;20460;-81
2021/09/07 02:39:23;;;;;;;12.70;8.50;;;14.00;99.90;;;15.22;100.00;98854.16;5063979;28;20453;-81
2021/09/07 02:41:51;;;;;;;15.60;8.00;;;14.10;99.90;;;15.21;100.00;98860.41;5065003;28;21013;-82
2021/09/07 02:44:20;;;;;;;13.13;9.07;;;14.10;99.90;;;15.20;100.00;98850.09;5062789;28;20949;-81
2021/09/07 02:46:49;;;;;;;11.40;9.03;;;14.10;99.90;;;15.10;100.00;98847.78;5061814;28;20491;-81
2021/09/07 02:49:19;;;;;;;19.87;8.20;;;13.90;99.90;;;15.11;100.00;98841.53;5063758;28;20488;-81
2021/09/07 02:51:48;;;;;;;12.20;8.67;;;13.90;99.90;;;15.12;100.00;98835.25;5057176;28;20858;-81
2021/09/07 02:54:17;;;;;;;12.50;8.33;;;13.90;99.90;;;15.14;100.00;98838.50;5057068;28;20550;-81
2021/09/07 02:56:45;;;;;;;11.97;7.90;;;14.00;99.90;;;15.13;100.00;98839.53;5059359;28;20557;-81
2021/09/07 02:59:14;;;;;;;19.30;9.00;;;14.00;99.90;;;15.18;100.00;98839.72;5057036;28;20461;-81
2021/09/07 03:01:43;;;;;;;16.97;9.43;;;14.10;99.90;;;15.20;100.00;98832.47;5061804;28;20558;-81
2021/09/07 03:04:12;;;;;;;13.50;8.50;;;14.10;99.90;;;15.15;100.00;98834.84;5056955;28;20457;-81
2021/09/07 03:06:41;;;;;;;12.67;8.03;;;14.00;99.90;;;15.22;100.00;98845.41;5062060;28;20464;-81
2021/09/07 03:09:10;;;;;;;18.90;9.03;;;14.10;99.90;;;15.22;100.00;98835.69;5057701;28;20499;-81
2021/09/07 03:11:38;;;;;;;13.27;9.47;;;14.10;99.90;;;15.20;100.00;98835.09;5063595;28;21008;-81
2021/09/07 03:14:07;;;;;;;16.17;9.37;;;14.00;99.90;;;15.21;100.00;98841.97;5058136;28;20510;-81
2021/09/07 03:16:35;;;;;;;14.37;8.53;;;14.10;99.90;;;15.25;100.00;98837.13;5063155;28;20456;-81
2021/09/07 03:19:05;;;;;;;11.73;8.87;;;14.10;99.90;;;15.29;100.00;98838.34;5062206;28;20468;-81
2021/09/07 03:21:33;;;;;;;13.30;8.30;;;14.20;99.90;;;15.23;100.00;98841.78;5063393;28;20507;-81
2021/09/07 03:24:03;;;;;;;16.73;9.47;;;14.20;99.90;;;15.12;100.00;98837.88;5057507;28;20828;-81
2021/09/07 03:26:31;;;;;;;11.10;8.00;;;14.00;99.90;;;15.15;100.00;98829.59;5063608;28;20460;-81
2021/09/07 03:29:00;;;;;;;13.53;7.50;;;14.00;99.90;;;15.21;100.00;98831.44;5056850;28;20970;-82
2021/09/07 03:31:28;;;;;;;16.33;8.00;;;14.10;99.90;;;15.14;100.00;98830.59;5062395;28;20496;-81
2021/09/07 03:33:57;;;;;;;14.57;10.07;;;14.00;99.90;;;15.12;100.00;98835.25;5065288;28;20464;-81
2021/09/07 03:36:25;;;;;;;12.43;8.80;;;13.90;99.90;;;15.13;100.00;98833.44;5055176;28;20539;-81
2021/09/07 03:38:54;;;;;;;23.53;9.70;;;14.00;99.90;;;15.15;100.00;98831.41;5054084;28;20457;-81
2021/09/07 03:41:24;;;;;;;11.43;8.90;;;14.00;99.90;;;15.17;100.00;98829.41;5055612;28;20480;-79
2021/09/07 03:43:52;;;;;;;14.50;8.63;;;14.10;99.90;;;15.09;100.00;98825.94;5059340;28;20515;-81
2021/09/07 03:46:21;;;;;;;18.03;9.60;;;13.90;99.90;;;15.05;100.00;98829.16;5057032;28;20994;-81
2021/09/07 03:48:49;;;;;;;12.97;8.70;;;13.90;99.90;;;15.06;100.00;98830.78;5057086;28;20461;-81
2021/09/07 03:51:18;;;;;;;14.13;8.90;;;13.90;99.90;;;15.09;100.00;98827.75;5057335;28;20601;-81
2021/09/07 03:53:47;;;;;;;14.17;9.03;;;14.00;99.90;;;15.08;100.00;98824.28;5063361;28;20488;-81
2021/09/07 03:56:17;;;;;;;12.20;8.87;;;14.00;99.90;;;14.96;100.00;98830.34;5062033;28;20461;-81
2021/09/07 03:58:47;;;;;;;11.40;8.23;;;13.80;99.90;;;14.93;100.00;98822.78;5069379;28;20448;-81
2021/09/07 04:01:15;;;;;;;18.63;8.60;;;13.80;99.90;;;14.84;100.00;98821.34;5068812;28;20472;-81
2021/09/07 04:03:44;;;;;;;12.50;9.00;;;13.60;99.90;;;14.89;100.00;98818.94;5065308;28;20454;-81
2021/09/07 04:06:13;;;;;;;15.23;8.47;;;13.70;99.90;;;14.88;100.00;98818.13;5057722;28;20445;-81
2021/09/07 04:08:41;;;;;;;13.43;9.40;;;13.70;99.90;;;14.93;100.00;98820.16;5068438;28;20506;-81
2021/09/07 04:11:10;;;;;;;16.43;8.57;;;13.80;99.90;;;14.97;100.00;98816.13;5064084;28;20542;-81
2021/09/07 04:13:38;;;;;;;11.80;8.33;;;13.80;99.90;;;14.91;100.00;98816.91;5063301;28;20465;-80
2021/09/07 04:16:08;;;;;;;17.93;8.27;;;13.70;99.90;;;14.85;100.00;98817.72;5068018;28;20952;-81
2021/09/07 04:18:37;;;;;;;17.97;8.80;;;13.70;99.90;;;14.81;100.00;98816.47;5056815;28;20437;-81
2021/09/07 04:21:06;;;;;;;16.20;9.10;;;13.70;99.90;;;14.87;100.00;98818.31;5060827;28;20445;-82
2021/09/07 04:23:34;;;;;;;17.83;10.63;;;13.70;99.90;;;14.92;100.00;98808.03;5068856;28;20501;-83
2021/09/07 04:26:03;;;;;;;12.70;8.63;;;13.80;99.90;;;14.94;100.00;98816.53;5057724;28;21008;-82
2021/09/07 04:28:31;;;;;;;15.73;9.40;;;13.80;99.90;;;14.88;100.00;98817.31;5069351;28;20469;-82
2021/09/07 04:31:00;;;;;;;15.17;9.50;;;13.70;99.90;;;14.86;100.00;98814.88;5066897;28;20868;-82
2021/09/07 04:33:29;;;;;;;13.27;9.20;;;13.70;99.90;;;14.84;100.00;98818.72;5069384;28;20992;-81
2021/09/07 04:35:58;;;;;;;13.23;8.50;;;13.70;99.90;;;14.85;100.00;98810.63;5066533;28;20440;-83
2021/09/07 04:38:26;;;;;;;14.90;8.60;;;13.70;99.90;;;14.87;100.00;98813.03;5061987;28;20453;-82
2021/09/07 04:40:55;;;;;;;14.10;9.43;;;13.80;99.90;;;14.74;100.00;98816.44;5060127;28;20546;-82
2021/09/07 04:43:23;;;;;;;15.23;9.63;;;13.60;99.90;;;14.69;100.00;98813.56;5057408;28;20449;-81
2021/09/07 04:45:52;;;;;;;12.53;8.60;;;13.50;99.90;;;14.53;100.00;98813.88;5059532;28;20501;-81
2021/09/07 04:48:20;;;;;;;12.87;9.10;;;13.30;99.90;;;14.52;100.00;98818.31;5054492;28;20959;-81
2021/09/07 04:50:50;;;;;;;12.67;8.07;;;13.20;99.90;;;14.50;100.00;98815.09;5061651;28;20499;-81
2021/09/07 04:53:19;;;;;;;13.57;9.30;;;13.30;99.90;;;14.46;100.00;98816.47;5056255;28;20473;-82
2021/09/07 04:55:47;;;;;;;16.90;9.53;;;13.20;99.90;;;14.43;100.00;98824.75;5059999;28;20448;-81
2021/09/07 04:58:16;;;;;;;17.80;10.50;;;13.20;99.90;;;14.46;100.00;98815.66;5061463;28;20476;-81
2021/09/07 05:00:44;;;;;;;15.40;10.37;;;13.20;99.90;;;14.46;100.00;98824.38;5060265;28;20961;-81
2021/09/07 05:03:13;;;;;;;17.17;10.20;;;13.20;99.90;;;14.46;100.00;98821.72;5063390;28;20543;-81
2021/09/07 05:05:41;;;;;;;15.57;9.30;;;13.30;99.90;;;14.38;100.00;98816.59;5068928;28;20445;-81
2021/09/07 05:08:11;;;;;;;18.23;9.80;;;13.20;99.90;;;14.37;100.00;98820.22;5065998;28;20456;-81
2021/09/07 05:10:40;;;;;;;15.43;9.80;;;13.20;99.90;;;14.33;100.00;98819.00;5067869;28;20490;-82
2021/09/07 05:13:08;;;;;;;14.80;9.57;;;13.10;99.90;;;14.34;100.00;98822.44;5069313;28;20467;-81
2021/09/07 05:15:37;;;;;;;14.90;9.60;;;13.10;99.90;;;14.35;100.00;98821.44;5068605;28;20479;-81
2021/09/07 05:18:05;;;;;;;17.50;9.10;;;13.20;99.90;;;14.32;100.00;98819.16;5069212;28;20448;-81
2021/09/07 05:20:34;;;;;;;12.83;9.10;;;13.10;99.90;;;14.32;100.00;98822.63;5068690;28;20506;-81
2021/09/07 05:23:02;;;;;;;17.37;10.00;;;13.10;99.90;;;14.35;100.00;98824.88;5068327;28;20972;-81
2021/09/07 05:25:32;;;;;;;14.23;8.90;;;13.20;99.90;;;14.41;100.00;98818.84;5061070;28;20860;-81
2021/09/07 05:28:01;;;;;;;16.63;9.77;;;13.30;99.90;;;14.40;100.00;98834.84;5068953;28;20468;-81
2021/09/07 05:30:29;;;;;;;13.63;8.90;;;13.30;99.90;;;14.35;100.00;98826.69;5072653;28;20444;-82
2021/09/07 05:32:58;;;;;;;12.77;9.17;;;13.10;99.90;;;14.33;100.00;98829.50;5071437;28;20500;-81
2021/09/07 05:35:26;;;;;;;13.37;9.03;;;13.20;99.90;;;14.37;100.00;98827.34;5068867;28;20457;-81
2021/09/07 05:37:55;;;;;;;16.57;10.83;;;13.20;99.90;;;14.37;100.00;98830.75;5061514;28;20456;-81
2021/09/07 05:40:23;;;;;;;15.40;9.83;;;13.30;99.90;;;14.35;100.00;98831.97;5068711;28;20436;-81
2021/09/07 05:42:53;;;;;;;15.00;9.60;;;13.20;99.90;;;14.38;100.00;98834.22;5069713;28;20956;-81
2021/09/07 05:45:21;;;;;;;11.63;8.93;;;13.20;99.90;;;14.36;100.00;98838.88;5073565;28;20455;-81
2021/09/07 05:47:50;;;;;;;14.70;9.90;;;13.20;99.90;;;14.40;100.00;98837.47;5067770;28;20488;-81
2021/09/07 05:50:19;;;;;;;14.17;9.63;;;13.20;99.90;;;14.41;100.00;98842.53;5066050;28;20475;-81
2021/09/07 05:52:47;;;;;;;13.47;9.27;;;13.20;99.90;;;14.42;100.00;98838.91;5073471;28;20521;-82
2021/09/07 05:55:16;;;;;;;16.13;10.10;;;13.30;99.90;;;14.45;100.00;98848.22;5070659;28;20482;-81
2021/09/07 05:57:46;;;;;;;14.07;10.07;;;13.30;99.90;;;14.48;100.00;98845.22;5073439;28;20453;-81
2021/09/07 06:00:16;;;;;;;15.30;9.43;;;13.40;99.90;;;14.46;100.00;98844.59;5068875;28;20954;-81
2021/09/07 06:02:45;;;;;;;13.83;9.80;;;13.30;99.90;;;14.48;100.00;98842.56;5060554;28;20461;-81
2021/09/07 06:05:14;;;;;;;15.67;10.07;;;13.30;99.90;;;14.53;100.00;98848.91;5067375;28;20452;-81
2021/09/07 06:07:42;;;;;;;13.40;10.10;;;13.40;99.90;;;14.58;100.00;98843.88;5070260;28;20452;-81
2021/09/07 06:10:11;;;;;;;18.90;10.53;;;13.50;99.90;;;14.61;100.00;98838.22;5072439;28;20998;-81
2021/09/07 06:12:40;;;;;;;15.60;9.50;;;13.50;99.90;;;14.59;100.00;98849.94;5072798;28;20912;-81
2021/09/07 06:15:10;;;;;;;13.97;9.30;;;13.50;99.90;;;14.59;100.00;98850.78;5073109;28;20448;-81
2021/09/07 06:17:40;;;;;;;17.93;11.70;;;13.40;99.90;;;14.65;100.00;98853.66;5068982;28;20456;-81
2021/09/07 06:20:11;;;;;;;17.73;10.23;;;13.50;99.90;;;14.72;100.00;98854.47;5072969;28;20529;-81
2021/09/07 06:22:39;;;;;;;14.50;10.33;;;13.60;99.90;;;14.81;100.00;98853.34;5069149;28;20448;-81
2021/09/07 06:25:10;;;;;;;15.70;9.97;;;13.70;99.90;;;14.89;100.00;98861.09;5068042;28;20444;-82
2021/09/07 06:27:38;;;;;;;11.83;9.30;;;13.80;99.90;;;14.92;100.00;98869.41;5072399;28;20459;-81
2021/09/07 06:30:08;;;;;;;19.93;10.20;;;13.80;99.90;;;14.95;100.00;98860.31;5072031;28;20440;-82
2021/09/07 06:32:38;;;;;;;14.57;9.93;;;13.90;99.90;;;14.97;100.00;98864.34;5072119;28;20506;-82
2021/09/07 06:35:09;;;;;;;17.13;10.17;;;13.90;99.90;;;14.99;100.00;98866.81;5070721;28;20456;-81
2021/09/07 06:37:39;;;;;;;18.03;9.57;;;13.90;99.90;;;15.04;100.00;98865.22;5062645;28;20452;-81
2021/09/07 06:40:09;;;;;;;14.53;9.43;;;14.00;99.90;;;15.08;100.00;98865.63;5063237;28;20454;-81
2021/09/07 06:42:39;;;;;;;14.97;9.70;;;14.00;99.90;;;15.08;100.00;98868.25;5069835;28;20453;-81
2021/09/07 06:45:09;;;;;;;13.77;9.33;;;14.00;99.90;;;15.12;100.00;98864.25;5070270;28;20501;-81
2021/09/07 06:47:38;;;;;;;16.57;10.20;;;14.00;99.90;;;15.19;100.00;98865.06;5072228;28;20495;-81
2021/09/07 06:50:11;;;;;;;21.60;10.27;;;14.10;99.90;;;15.24;100.00;98875.81;5072330;28;20472;-81
2021/09/07 06:52:40;;;;;;;18.53;10.63;;;14.20;99.90;;;15.29;100.00;98873.44;5072568;28;20499;-82
2021/09/07 06:55:10;;;;;;;14.67;9.57;;;14.20;99.90;;;15.38;100.00;98872.25;5071855;28;20512;-81
2021/09/07 06:57:39;;;;;;;15.97;10.00;;;14.30;99.90;;;15.43;100.00;98871.66;5072084;28;20452;-81
2021/09/07 07:00:10;;;;;;;14.30;9.57;;;14.40;99.90;;;15.48;100.00;98875.34;5061258;28;20560;-81
2021/09/07 07:02:40;;;;;;;16.60;10.77;;;14.50;99.90;;;15.54;100.00;98876.41;5058441;28;20941;-81
2021/09/07 07:05:11;;;;;;;16.00;11.23;;;14.60;99.90;;;15.59;100.00;98881.88;5065714;28;20488;-81
2021/09/07 07:07:40;;;;;;;14.30;9.63;;;14.60;99.90;;;15.63;100.00;98879.66;5065427;28;20926;-81
2021/09/07 07:10:10;;;;;;;19.27;10.57;;;14.60;99.90;;;15.66;100.00;98876.63;5065296;28;20448;-81
2021/09/07 07:12:40;;;;;;;21.37;11.77;;;14.70;99.90;;;15.68;100.00;98877.25;5071960;28;20496;-81
2021/09/07 07:15:10;;;;;;;19.33;11.63;;;14.70;99.90;;;15.72;100.00;98878.47;5069275;28;20860;-81
2021/09/07 07:17:38;;;;;;;14.83;9.63;;;14.70;99.90;;;15.77;100.00;98876.03;5066948;28;21041;-81
2021/09/07 07:20:10;;;;;;;14.60;10.27;;;14.80;99.90;;;15.83;100.00;98873.41;5068222;28;20457;-81
2021/09/07 07:22:39;;;;;;;16.23;10.27;;;14.90;99.90;;;15.88;100.00;98872.81;5071367;28;20448;-81
2021/09/07 07:25:09;;;;;;;16.53;11.57;;;14.90;99.90;;;15.93;100.00;98879.13;5071238;28;20448;-81
2021/09/07 07:27:39;;;;;;;15.90;10.17;;;15.00;99.90;;;15.98;100.00;98878.53;5070773;28;20448;-81
2021/09/07 07:30:10;;;;;;;19.23;10.10;;;15.00;99.90;;;16.05;100.00;98881.97;5070884;28;20449;-81
2021/09/07 07:32:40;;;;;;;16.00;10.90;;;15.10;99.90;;;16.11;100.00;98878.53;5066139;28;20502;-81
2021/09/07 07:35:11;;;;;;;12.77;9.93;;;15.10;99.90;;;16.16;100.00;98880.56;5069858;28;20925;-81
2021/09/07 07:37:39;;;;;;;16.40;10.87;;;15.20;99.90;;;16.21;100.00;98884.22;5060749;28;20801;-81
2021/09/07 07:40:09;;;;;;;20.83;11.47;;;15.30;99.90;;;16.26;100.00;98876.53;5071544;28;20502;-81
2021/09/07 07:42:39;;;;;;;17.73;10.97;;;15.30;99.90;;;16.30;100.00;98866.38;5071228;28;20460;-81
2021/09/07 07:45:08;;;;;;;17.90;9.50;;;15.40;99.90;;;16.35;100.00;98875.28;5071883;28;20445;-81
2021/09/07 07:47:37;;;;;;;17.00;9.70;;;15.50;99.90;;;16.41;100.00;98874.50;5074640;28;21434;-81
2021/09/07 07:50:12;;;;;;;16.73;9.70;;;15.50;99.90;;;16.45;100.00;98880.97;5069719;28;20464;-81
2021/09/07 07:52:41;;;;;;;13.73;9.67;;;15.50;99.90;;;16.52;100.00;98873.88;5061360;28;20500;-81
2021/09/07 07:55:10;;;;;;;18.20;10.40;;;15.70;99.90;;;16.57;100.00;98870.66;5067747;28;20484;-81
2021/09/07 07:57:38;;;;;;;14.67;9.40;;;15.70;99.90;;;16.62;100.00;98865.56;5071288;28;20509;-81
2021/09/07 08:00:09;;;;;;;13.77;10.20;;;15.80;99.90;;;16.69;100.00;98865.56;5066608;28;21010;-81
2021/09/07 08:02:39;;;;;;;13.40;10.57;;;15.80;99.90;;;16.75;100.00;98868.19;5065344;28;20489;-81
2021/09/07 08:05:13;;;;;;;15.90;9.70;;;15.90;99.90;;;16.82;100.00;98873.47;5068044;28;20912;-81
2021/09/07 08:07:42;;;;;;;18.40;10.57;;;16.00;99.90;;;16.88;100.00;98881.38;5059852;28;20481;-82
2021/09/07 08:10:12;;;;;;;14.07;9.37;;;16.10;99.90;;;16.94;100.00;98874.44;5073957;28;20856;-81
2021/09/07 08:12:41;;;;;;;18.13;9.30;;;16.10;99.90;;;17.01;100.00;98864.66;5070349;28;20534;-81
2021/09/07 08:15:11;;;;;;;17.63;9.80;;;16.10;99.90;;;17.06;100.00;98870.16;5067153;28;21057;-81
2021/09/07 08:17:39;;;;;;;15.33;10.70;;;16.20;99.90;;;17.14;100.00;98871.75;5067998;28;20456;-82
2021/09/07 08:20:10;;;;;;;31.17;10.20;;;16.30;99.90;;;17.21;100.00;98872.56;5067954;28;20452;-81
2021/09/07 08:22:39;;;;;;;16.57;10.17;;;16.40;99.90;;;17.25;100.00;98871.91;5069857;28;20506;-81
2021/09/07 08:25:10;;;;;;;13.83;8.93;;;16.40;99.90;;;17.33;100.00;98876.97;5065119;28;21170;-81
2021/09/07 08:27:39;;;;;;;14.40;10.37;;;16.50;99.90;;;17.39;100.00;98872.69;5062858;28;20451;-81
2021/09/07 08:30:10;;;;;;;12.97;9.20;;;16.60;99.90;;;17.44;100.00;98865.75;5068471;28;20449;-82
2021/09/07 08:32:41;;;;;;;19.87;9.77;;;16.70;99.90;;;17.50;100.00;98867.53;5068600;28;20447;-81
2021/09/07 08:35:11;;;;;;;14.77;9.40;;;16.70;99.90;;;17.56;100.00;98869.34;5058737;28;20519;-81
2021/09/07 08:37:43;;;;;;;15.87;9.97;;;16.80;99.90;;;17.62;100.00;98867.72;5060950;28;20453;-81
2021/09/07 08:40:13;;;;;;;28.73;10.23;;;16.90;99.90;;;17.68;100.00;98868.69;5064356;28;20445;-81
2021/09/07 08:42:42;;;;;;;12.30;9.23;;;17.00;99.90;;;17.75;100.00;98874.75;5067787;28;20517;-82
2021/09/07 08:45:15;;;;;;;17.00;10.03;;;17.00;99.90;;;17.82;100.00;98872.88;5071067;28;20493;-81
2021/09/07 08:47:47;;;;;;;11.53;8.57;;;17.10;99.90;;;17.88;100.00;98872.84;5067227;28;20456;-81
2021/09/07 08:50:16;;;;;;;21.80;9.50;;;17.20;99.90;;;17.95;100.00;98884.19;5070418;28;20981;-81
2021/09/07 08:52:46;;;;;;;13.87;8.77;;;17.20;99.90;;;18.02;100.00;98879.69;5070778;28;20477;-82
2021/09/07 08:55:14;;;;;;;14.57;8.50;;;17.30;99.90;;;18.08;100.00;98883.31;5070600;28;20522;-81
2021/09/07 08:57:43;;;;;;;20.20;10.30;;;17.40;99.90;;;18.15;100.00;98889.38;5070751;28;20837;-82
2021/09/07 09:00:13;;;;;;;13.27;9.60;;;17.50;99.90;;;18.22;100.00;98884.03;5066901;28;20922;-82
2021/09/07 09:02:45;;;;;;;14.90;9.90;;;17.60;99.90;;;18.28;100.00;98888.47;5058417;28;20931;-81
2021/09/07 09:05:27;;;;;;;16.63;11.13;;;17.60;99.90;;;18.35;100.00;98887.41;5070969;28;20447;-82
2021/09/07 09:07:58;;;;;;;15.70;10.17;;;17.80;99.90;;;18.41;100.00;98883.88;5073717;28;20860;-81
2021/09/07 09:10:28;;;;;;;18.13;9.47;;;17.80;99.90;;;18.48;100.00;98884.63;5073133;28;20464;-82
2021/09/07 09:13:08;;;;;;;17.17;9.37;;;17.90;99.90;;;18.55;100.00;98881.94;5073171;28;20509;-82
2021/09/07 09:15:38;;;;;;;15.53;9.63;;;18.00;99.90;;;18.63;100.00;98880.88;5064166;28;20530;-82
2021/09/07 09:18:09;;;;;;;12.00;8.83;;;18.00;99.90;;;18.68;100.00;98888.97;5072275;28;20462;-81
2021/09/07 09:20:40;;;;;;;13.30;8.47;;;18.10;99.90;;;18.75;100.00;98890.53;5065593;28;20456;-81
2021/09/07 09:23:10;;;;;;;17.20;9.00;;;18.10;99.90;;;18.81;100.00;98886.22;5067607;28;20441;-81
2021/09/07 09:25:41;;;;;;;16.10;9.00;;;18.20;99.90;;;18.87;100.00;98885.31;5072907;28;20448;-82
2021/09/07 09:28:21;;;;;;;14.50;9.20;;;18.30;99.90;;;18.95;100.00;98887.69;5071230;28;20445;-81
2021/09/07 09:30:55;;;;;;;26.23;7.80;;;18.30;99.90;;;19.01;100.00;98873.56;5072172;28;20547;-82
2021/09/07 09:33:26;;;;;;;15.60;8.67;;;18.40;99.90;;;19.06;100.00;98871.03;5071904;28;20533;-82
2021/09/07 09:36:01;;;;;;;12.83;8.37;;;18.50;99.90;;;19.14;100.00;98865.44;5067642;28;20447;-81
2021/09/07 09:38:34;;;;;;;14.10;8.70;;;18.60;99.90;;;19.22;100.00;98877.59;5067446;28;20448;-81
2021/09/07 09:41:05;;;;;;;15.07;9.30;;;18.60;99.90;;;19.29;100.00;98873.84;5073094;28;20814;-82
2021/09/07 09:43:43;;;;;;;13.33;7.87;;;18.70;99.90;;;19.35;100.00;98872.13;5064199;28;20452;-82
2021/09/07 09:46:23;;;;;;;12.60;8.00;;;18.80;99.90;;;19.43;100.00;98874.53;5073941;28;20462;-82
2021/09/07 09:48:54;;;;;;;10.20;7.77;;;18.90;99.90;;;19.51;100.00;98871.53;5068417;28;20941;-82
2021/09/07 09:51:24;;;;;;;11.30;8.00;;;18.90;99.90;;;19.57;100.00;98860.06;5065845;28;20979;-82
2021/09/07 09:53:54;;;;;;;15.07;7.83;;;19.00;99.90;;;19.66;100.00;98865.84;5073205;28;20553;-82
2021/09/07 09:56:23;;;;;;;14.00;9.23;;;19.10;99.90;;;19.71;100.00;98866.00;5073819;28;20523;-81
2021/09/07 09:58:53;;;;;;;17.57;8.20;;;19.10;99.90;;;19.77;100.00;98857.13;5072414;28;20494;-82
2021/09/07 10:01:22;;;;;;;16.33;8.30;;;19.20;99.90;;;19.83;100.00;98861.53;5073222;28;20456;-82
2021/09/07 10:03:54;;;;;;;10.90;8.30;;;19.30;99.90;;;19.88;100.00;98854.50;5061544;28;20451;-82
2021/09/07 10:06:22;;;;;;;19.40;7.87;;;19.30;99.90;;;19.95;100.00;98857.88;5072244;28;20487;-81
2021/09/07 10:08:53;;;;;;;12.07;8.27;;;19.40;99.90;;;20.01;100.00;98856.16;5069042;28;20876;-82
2021/09/07 10:11:26;;;;;;;13.70;8.50;;;19.40;99.90;;;20.05;100.00;98854.66;5059316;28;20821;-82
2021/09/07 10:13:59;;;;;;;12.47;7.90;;;19.50;99.90;;;20.10;100.00;98852.13;5070809;28;20829;-82
2021/09/07 10:16:35;;;;;;;11.03;7.93;;;19.60;99.90;;;20.15;100.00;98844.28;5065648;28;20880;-82